sensor_id;sensor_type;location;lat;lon;timestamp;temperature;humidity
70074;DHT22;57445;51.058;3.698;2023-06-14T00:02:10;22.70;67.40
70074;DHT22;57445;51.058;3.698;2023-06-14T00:04:38;22.70;67.50
70074;DHT22;57445;51.058;3.698;2023-06-14T00:07:07;22.80;67.00
70074;DHT22;57445;51.058;3.698;2023-06-14T00:09:35;22.70;67.70
70074;DHT22;57445;51.058;3.698;2023-06-14T00:12:02;22.60;67.90
70074;DHT22;57445;51.058;3.698;2023-06-14T00:14:30;22.40;68.30
70074;DHT22;57445;51.058;3.698;2023-06-14T00:16:59;22.40;68.30
70074;DHT22;57445;51.058;3.698;2023-06-14T00:19:28;22.30;68.80
70074;DHT22;57445;51.058;3.698;2023-06-14T00:21:58;22.20;69.30
70074;DHT22;57445;51.058;3.698;2023-06-14T00:24:26;22.10;69.40
70074;DHT22;57445;51.058;3.698;2023-06-14T00:26:53;22.10;69.20
70074;DHT22;57445;51.058;3.698;2023-06-14T00:29:21;22.10;69.20
70074;DHT22;57445;51.058;3.698;2023-06-14T00:31:49;22.20;68.80
70074;DHT22;57445;51.058;3.698;2023-06-14T00:34:18;22.20;68.50
70074;DHT22;57445;51.058;3.698;2023-06-14T00:36:45;22.10;68.70
70074;DHT22;57445;51.058;3.698;2023-06-14T00:39:12;22.10;68.50
70074;DHT22;57445;51.058;3.698;2023-06-14T00:41:40;22.00;68.50
70074;DHT22;57445;51.058;3.698;2023-06-14T00:44:07;22.10;68.20
70074;DHT22;57445;51.058;3.698;2023-06-14T00:46:35;22.10;67.80
70074;DHT22;57445;51.058;3.698;2023-06-14T00:49:03;22.00;68.10
70074;DHT22;57445;51.058;3.698;2023-06-14T00:51:32;21.90;68.00
70074;DHT22;57445;51.058;3.698;2023-06-14T00:53:59;22.00;67.90
70074;DHT22;57445;51.058;3.698;2023-06-14T00:56:27;22.00;67.50
70074;DHT22;57445;51.058;3.698;2023-06-14T00:58:56;22.10;67.20
70074;DHT22;57445;51.058;3.698;2023-06-14T01:01:23;22.00;67.30
70074;DHT22;57445;51.058;3.698;2023-06-14T01:03:51;21.80;67.60
70074;DHT22;57445;51.058;3.698;2023-06-14T01:06:19;21.80;67.40
70074;DHT22;57445;51.058;3.698;2023-06-14T01:08:57;21.80;67.30
70074;DHT22;57445;51.058;3.698;2023-06-14T01:11:28;21.80;67.10
70074;DHT22;57445;51.058;3.698;2023-06-14T01:13:59;21.70;66.90
70074;DHT22;57445;51.058;3.698;2023-06-14T01:16:29;21.80;66.80
70074;DHT22;57445;51.058;3.698;2023-06-14T01:18:57;21.80;66.70
70074;DHT22;57445;51.058;3.698;2023-06-14T01:21:25;21.70;66.70
70074;DHT22;57445;51.058;3.698;2023-06-14T01:23:56;21.70;66.60
70074;DHT22;57445;51.058;3.698;2023-06-14T01:26:23;21.60;66.50
70074;DHT22;57445;51.058;3.698;2023-06-14T01:28:52;21.60;66.70
70074;DHT22;57445;51.058;3.698;2023-06-14T01:31:24;21.50;66.90
70074;DHT22;57445;51.058;3.698;2023-06-14T01:33:52;21.40;67.10
70074;DHT22;57445;51.058;3.698;2023-06-14T01:36:20;21.50;66.90
70074;DHT22;57445;51.058;3.698;2023-06-14T01:38:49;21.50;66.80
70074;DHT22;57445;51.058;3.698;2023-06-14T01:41:18;21.40;66.50
70074;DHT22;57445;51.058;3.698;2023-06-14T01:43:48;21.40;66.40
70074;DHT22;57445;51.058;3.698;2023-06-14T01:46:16;21.30;66.40
70074;DHT22;57445;51.058;3.698;2023-06-14T01:48:43;21.30;66.40
70074;DHT22;57445;51.058;3.698;2023-06-14T01:51:11;21.40;65.90
70074;DHT22;57445;51.058;3.698;2023-06-14T01:53:38;21.40;65.80
70074;DHT22;57445;51.058;3.698;2023-06-14T01:56:06;21.40;65.80
70074;DHT22;57445;51.058;3.698;2023-06-14T01:58:35;21.30;65.90
70074;DHT22;57445;51.058;3.698;2023-06-14T02:01:02;21.30;66.10
70074;DHT22;57445;51.058;3.698;2023-06-14T02:03:31;21.30;65.80
70074;DHT22;57445;51.058;3.698;2023-06-14T02:05:58;21.20;65.80
70074;DHT22;57445;51.058;3.698;2023-06-14T02:08:26;21.20;65.90
70074;DHT22;57445;51.058;3.698;2023-06-14T02:10:53;21.20;65.60
70074;DHT22;57445;51.058;3.698;2023-06-14T02:13:21;21.10;65.60
70074;DHT22;57445;51.058;3.698;2023-06-14T02:15:50;21.20;65.30
70074;DHT22;57445;51.058;3.698;2023-06-14T02:18:20;21.10;65.20
70074;DHT22;57445;51.058;3.698;2023-06-14T02:20:48;21.00;65.40
70074;DHT22;57445;51.058;3.698;2023-06-14T02:23:15;21.00;65.30
70074;DHT22;57445;51.058;3.698;2023-06-14T02:25:43;21.00;65.20
70074;DHT22;57445;51.058;3.698;2023-06-14T02:28:11;21.00;65.10
70074;DHT22;57445;51.058;3.698;2023-06-14T02:30:38;21.10;64.80
70074;DHT22;57445;51.058;3.698;2023-06-14T02:33:08;21.40;64.20
70074;DHT22;57445;51.058;3.698;2023-06-14T02:35:38;21.40;63.80
70074;DHT22;57445;51.058;3.698;2023-06-14T02:38:06;21.40;63.90
70074;DHT22;57445;51.058;3.698;2023-06-14T02:40:33;21.40;63.60
70074;DHT22;57445;51.058;3.698;2023-06-14T02:43:00;21.40;62.70
70074;DHT22;57445;51.058;3.698;2023-06-14T02:45:28;21.30;63.20
70074;DHT22;57445;51.058;3.698;2023-06-14T02:47:55;21.40;62.80
70074;DHT22;57445;51.058;3.698;2023-06-14T02:50:24;21.40;62.50
70074;DHT22;57445;51.058;3.698;2023-06-14T02:52:52;21.20;62.80
70074;DHT22;57445;51.058;3.698;2023-06-14T02:55:21;21.20;62.90
70074;DHT22;57445;51.058;3.698;2023-06-14T02:57:49;21.20;62.70
70074;DHT22;57445;51.058;3.698;2023-06-14T03:00:17;21.20;62.60
70074;DHT22;57445;51.058;3.698;2023-06-14T03:02:45;21.20;62.20
70074;DHT22;57445;51.058;3.698;2023-06-14T03:05:13;21.30;62.00
70074;DHT22;57445;51.058;3.698;2023-06-14T03:07:41;21.30;61.90
70074;DHT22;57445;51.058;3.698;2023-06-14T03:10:11;21.30;61.70
70074;DHT22;57445;51.058;3.698;2023-06-14T03:12:39;21.40;61.20
70074;DHT22;57445;51.058;3.698;2023-06-14T03:15:07;21.30;61.40
70074;DHT22;57445;51.058;3.698;2023-06-14T03:17:35;21.10;61.30
70074;DHT22;57445;51.058;3.698;2023-06-14T03:20:05;21.00;61.70
70074;DHT22;57445;51.058;3.698;2023-06-14T03:22:34;20.90;61.80
70074;DHT22;57445;51.058;3.698;2023-06-14T03:25:03;21.30;61.00
70074;DHT22;57445;51.058;3.698;2023-06-14T03:27:31;21.30;60.60
70074;DHT22;57445;51.058;3.698;2023-06-14T03:29:58;21.10;60.90
70074;DHT22;57445;51.058;3.698;2023-06-14T03:32:26;21.00;61.10
70074;DHT22;57445;51.058;3.698;2023-06-14T03:34:54;20.90;61.10
70074;DHT22;57445;51.058;3.698;2023-06-14T03:37:21;21.00;60.80
70074;DHT22;57445;51.058;3.698;2023-06-14T03:39:49;21.00;60.80
70074;DHT22;57445;51.058;3.698;2023-06-14T03:42:19;20.80;60.70
70074;DHT22;57445;51.058;3.698;2023-06-14T03:44:46;20.80;61.10
70074;DHT22;57445;51.058;3.698;2023-06-14T03:47:14;20.70;61.40
70074;DHT22;57445;51.058;3.698;2023-06-14T03:49:41;20.70;61.00
70074;DHT22;57445;51.058;3.698;2023-06-14T03:52:08;20.90;60.60
70074;DHT22;57445;51.058;3.698;2023-06-14T03:54:36;20.80;60.70
70074;DHT22;57445;51.058;3.698;2023-06-14T03:57:04;20.60;61.00
70074;DHT22;57445;51.058;3.698;2023-06-14T03:59:33;20.50;61.30
70074;DHT22;57445;51.058;3.698;2023-06-14T04:02:01;20.60;61.70
70074;DHT22;57445;51.058;3.698;2023-06-14T04:04:28;20.50;61.50
70074;DHT22;57445;51.058;3.698;2023-06-14T04:06:56;20.50;60.40
70074;DHT22;57445;51.058;3.698;2023-06-14T04:09:24;20.60;60.50
70074;DHT22;57445;51.058;3.698;2023-06-14T04:11:52;20.70;59.90
70074;DHT22;57445;51.058;3.698;2023-06-14T04:14:19;20.60;60.00
70074;DHT22;57445;51.058;3.698;2023-06-14T04:16:48;20.50;60.20
70074;DHT22;57445;51.058;3.698;2023-06-14T04:19:16;20.60;59.90
70074;DHT22;57445;51.058;3.698;2023-06-14T04:21:44;20.60;59.50
70074;DHT22;57445;51.058;3.698;2023-06-14T04:24:11;20.60;59.70
70074;DHT22;57445;51.058;3.698;2023-06-14T04:26:39;20.60;59.40
70074;DHT22;57445;51.058;3.698;2023-06-14T04:29:07;20.70;59.20
70074;DHT22;57445;51.058;3.698;2023-06-14T04:31:34;20.70;59.40
70074;DHT22;57445;51.058;3.698;2023-06-14T04:34:05;20.70;59.10
70074;DHT22;57445;51.058;3.698;2023-06-14T04:36:32;20.60;59.30
70074;DHT22;57445;51.058;3.698;2023-06-14T04:39:03;20.70;58.80
70074;DHT22;57445;51.058;3.698;2023-06-14T04:41:30;20.90;58.40
70074;DHT22;57445;51.058;3.698;2023-06-14T04:44:00;20.90;58.20
70074;DHT22;57445;51.058;3.698;2023-06-14T04:46:28;20.80;58.40
70074;DHT22;57445;51.058;3.698;2023-06-14T04:48:58;20.80;58.50
70074;DHT22;57445;51.058;3.698;2023-06-14T04:51:29;20.70;58.40
70074;DHT22;57445;51.058;3.698;2023-06-14T04:53:59;20.70;58.30
70074;DHT22;57445;51.058;3.698;2023-06-14T04:56:27;20.70;58.60
70074;DHT22;57445;51.058;3.698;2023-06-14T04:58:56;20.70;58.50
70074;DHT22;57445;51.058;3.698;2023-06-14T05:01:24;20.80;58.10
70074;DHT22;57445;51.058;3.698;2023-06-14T05:03:51;21.00;58.10
70074;DHT22;57445;51.058;3.698;2023-06-14T05:06:19;21.40;57.40
70074;DHT22;57445;51.058;3.698;2023-06-14T05:08:50;21.40;56.60
70074;DHT22;57445;51.058;3.698;2023-06-14T05:11:17;21.30;56.50
70074;DHT22;57445;51.058;3.698;2023-06-14T05:13:46;21.30;56.80
70074;DHT22;57445;51.058;3.698;2023-06-14T05:16:13;21.10;57.20
70074;DHT22;57445;51.058;3.698;2023-06-14T05:18:43;21.30;56.90
70074;DHT22;57445;51.058;3.698;2023-06-14T05:21:13;21.40;56.60
70074;DHT22;57445;51.058;3.698;2023-06-14T05:23:43;21.60;56.60
70074;DHT22;57445;51.058;3.698;2023-06-14T05:26:12;21.80;55.80
70074;DHT22;57445;51.058;3.698;2023-06-14T05:28:40;22.10;55.20
70074;DHT22;57445;51.058;3.698;2023-06-14T05:31:07;23.10;53.40
70074;DHT22;57445;51.058;3.698;2023-06-14T05:33:35;24.00;52.60
70074;DHT22;57445;51.058;3.698;2023-06-14T05:36:02;24.80;50.60
70074;DHT22;57445;51.058;3.698;2023-06-14T05:38:30;25.60;49.10
70074;DHT22;57445;51.058;3.698;2023-06-14T05:40:57;26.30;48.30
70074;DHT22;57445;51.058;3.698;2023-06-14T05:43:27;27.10;46.60
70074;DHT22;57445;51.058;3.698;2023-06-14T05:45:54;27.90;46.40
70074;DHT22;57445;51.058;3.698;2023-06-14T05:48:22;28.20;45.60
70074;DHT22;57445;51.058;3.698;2023-06-14T05:50:49;29.00;45.10
70074;DHT22;57445;51.058;3.698;2023-06-14T05:53:17;29.70;43.60
70074;DHT22;57445;51.058;3.698;2023-06-14T05:55:44;29.90;43.20
70074;DHT22;57445;51.058;3.698;2023-06-14T05:58:12;29.90;43.00
70074;DHT22;57445;51.058;3.698;2023-06-14T06:00:41;29.20;43.70
70074;DHT22;57445;51.058;3.698;2023-06-14T06:03:09;29.70;43.00
70074;DHT22;57445;51.058;3.698;2023-06-14T06:05:37;29.70;43.40
70074;DHT22;57445;51.058;3.698;2023-06-14T06:08:05;29.60;42.70
70074;DHT22;57445;51.058;3.698;2023-06-14T06:10:32;29.50;44.10
70074;DHT22;57445;51.058;3.698;2023-06-14T06:13:00;29.80;43.90
70074;DHT22;57445;51.058;3.698;2023-06-14T06:15:27;30.30;43.00
70074;DHT22;57445;51.058;3.698;2023-06-14T06:17:56;31.40;41.70
70074;DHT22;57445;51.058;3.698;2023-06-14T06:20:25;32.00;41.80
70074;DHT22;57445;51.058;3.698;2023-06-14T06:22:54;31.90;41.60
70074;DHT22;57445;51.058;3.698;2023-06-14T06:25:21;32.30;40.80
70074;DHT22;57445;51.058;3.698;2023-06-14T06:27:52;32.20;41.50
70074;DHT22;57445;51.058;3.698;2023-06-14T06:30:20;32.40;40.00
70074;DHT22;57445;51.058;3.698;2023-06-14T06:32:47;32.70;40.00
70074;DHT22;57445;51.058;3.698;2023-06-14T06:35:16;32.60;40.20
70074;DHT22;57445;51.058;3.698;2023-06-14T06:37:44;32.40;40.00
70074;DHT22;57445;51.058;3.698;2023-06-14T06:40:12;32.80;40.00
70074;DHT22;57445;51.058;3.698;2023-06-14T06:42:40;32.30;40.50
70074;DHT22;57445;51.058;3.698;2023-06-14T06:45:07;32.80;39.90
70074;DHT22;57445;51.058;3.698;2023-06-14T06:47:35;32.80;39.70
70074;DHT22;57445;51.058;3.698;2023-06-14T06:50:04;32.80;39.60
70074;DHT22;57445;51.058;3.698;2023-06-14T06:52:34;32.40;40.20
70074;DHT22;57445;51.058;3.698;2023-06-14T06:55:02;32.50;40.40
70074;DHT22;57445;51.058;3.698;2023-06-14T06:57:29;31.90;40.40
70074;DHT22;57445;51.058;3.698;2023-06-14T06:59:57;31.70;40.40
70074;DHT22;57445;51.058;3.698;2023-06-14T07:02:24;31.80;41.10
70074;DHT22;57445;51.058;3.698;2023-06-14T07:04:52;31.60;41.00
70074;DHT22;57445;51.058;3.698;2023-06-14T07:07:19;32.00;40.60
70074;DHT22;57445;51.058;3.698;2023-06-14T07:09:48;32.50;40.10
70074;DHT22;57445;51.058;3.698;2023-06-14T07:12:16;32.30;40.60
70074;DHT22;57445;51.058;3.698;2023-06-14T07:14:45;30.70;41.70
70074;DHT22;57445;51.058;3.698;2023-06-14T07:17:14;31.10;41.60
70074;DHT22;57445;51.058;3.698;2023-06-14T07:19:41;30.80;42.00
70074;DHT22;57445;51.058;3.698;2023-06-14T07:22:10;29.80;44.10
70074;DHT22;57445;51.058;3.698;2023-06-14T07:24:38;29.30;43.90
70074;DHT22;57445;51.058;3.698;2023-06-14T07:27:10;28.40;44.80
70074;DHT22;57445;51.058;3.698;2023-06-14T07:29:40;28.80;44.50
70074;DHT22;57445;51.058;3.698;2023-06-14T07:32:07;27.70;45.60
70074;DHT22;57445;51.058;3.698;2023-06-14T07:34:35;27.60;46.00
70074;DHT22;57445;51.058;3.698;2023-06-14T07:37:03;27.50;46.30
70074;DHT22;57445;51.058;3.698;2023-06-14T07:39:30;26.50;47.80
70074;DHT22;57445;51.058;3.698;2023-06-14T07:41:59;26.30;48.30
70074;DHT22;57445;51.058;3.698;2023-06-14T07:44:29;25.80;48.90
70074;DHT22;57445;51.058;3.698;2023-06-14T07:46:57;25.70;49.50
70074;DHT22;57445;51.058;3.698;2023-06-14T07:49:26;26.00;48.80
70074;DHT22;57445;51.058;3.698;2023-06-14T07:51:54;25.90;47.90
70074;DHT22;57445;51.058;3.698;2023-06-14T07:54:21;26.40;47.10
70074;DHT22;57445;51.058;3.698;2023-06-14T07:56:52;26.40;46.90
70074;DHT22;57445;51.058;3.698;2023-06-14T07:59:20;26.20;47.10
70074;DHT22;57445;51.058;3.698;2023-06-14T08:01:49;26.40;47.50
70074;DHT22;57445;51.058;3.698;2023-06-14T08:04:16;26.50;48.00
70074;DHT22;57445;51.058;3.698;2023-06-14T08:06:46;27.00;47.90
70074;DHT22;57445;51.058;3.698;2023-06-14T08:09:13;26.80;48.50
70074;DHT22;57445;51.058;3.698;2023-06-14T08:11:41;26.70;49.10
70074;DHT22;57445;51.058;3.698;2023-06-14T08:14:08;26.50;49.20
70074;DHT22;57445;51.058;3.698;2023-06-14T08:16:36;26.00;50.20
70074;DHT22;57445;51.058;3.698;2023-06-14T08:19:05;25.80;49.60
70074;DHT22;57445;51.058;3.698;2023-06-14T08:21:32;25.70;50.20
70074;DHT22;57445;51.058;3.698;2023-06-14T08:24:02;26.30;49.60
70074;DHT22;57445;51.058;3.698;2023-06-14T08:26:30;26.00;50.20
70074;DHT22;57445;51.058;3.698;2023-06-14T08:28:58;25.60;50.30
70074;DHT22;57445;51.058;3.698;2023-06-14T08:31:25;25.50;50.40
70074;DHT22;57445;51.058;3.698;2023-06-14T08:33:53;26.10;49.70
70074;DHT22;57445;51.058;3.698;2023-06-14T08:36:23;26.20;49.90
70074;DHT22;57445;51.058;3.698;2023-06-14T08:38:51;26.00;50.00
70074;DHT22;57445;51.058;3.698;2023-06-14T08:41:20;26.00;50.10
70074;DHT22;57445;51.058;3.698;2023-06-14T08:43:48;26.30;49.50
70074;DHT22;57445;51.058;3.698;2023-06-14T08:46:17;26.50;48.90
70074;DHT22;57445;51.058;3.698;2023-06-14T08:48:46;26.60;48.20
70074;DHT22;57445;51.058;3.698;2023-06-14T08:51:14;26.40;47.70
70074;DHT22;57445;51.058;3.698;2023-06-14T08:53:45;26.10;48.10
70074;DHT22;57445;51.058;3.698;2023-06-14T08:56:13;26.20;47.90
70074;DHT22;57445;51.058;3.698;2023-06-14T08:58:42;26.00;47.70
70074;DHT22;57445;51.058;3.698;2023-06-14T09:01:11;25.80;48.30
70074;DHT22;57445;51.058;3.698;2023-06-14T09:03:40;25.90;48.80
70074;DHT22;57445;51.058;3.698;2023-06-14T09:06:08;26.30;48.20
70074;DHT22;57445;51.058;3.698;2023-06-14T09:08:40;26.80;47.00
70074;DHT22;57445;51.058;3.698;2023-06-14T09:11:09;27.20;46.60
70074;DHT22;57445;51.058;3.698;2023-06-14T09:13:37;27.20;46.30
70074;DHT22;57445;51.058;3.698;2023-06-14T09:16:05;27.30;45.50
70074;DHT22;57445;51.058;3.698;2023-06-14T09:18:34;26.60;45.50
70074;DHT22;57445;51.058;3.698;2023-06-14T09:21:01;26.50;45.20
70074;DHT22;57445;51.058;3.698;2023-06-14T09:23:29;26.30;45.90
70074;DHT22;57445;51.058;3.698;2023-06-14T09:25:57;26.30;46.10
70074;DHT22;57445;51.058;3.698;2023-06-14T09:28:28;26.50;46.20
70074;DHT22;57445;51.058;3.698;2023-06-14T09:30:55;26.60;46.30
70074;DHT22;57445;51.058;3.698;2023-06-14T09:33:24;26.80;45.30
70074;DHT22;57445;51.058;3.698;2023-06-14T09:35:52;27.20;44.00
70074;DHT22;57445;51.058;3.698;2023-06-14T09:38:21;27.20;44.40
70074;DHT22;57445;51.058;3.698;2023-06-14T09:40:49;27.30;44.00
70074;DHT22;57445;51.058;3.698;2023-06-14T09:43:17;27.40;44.50
70074;DHT22;57445;51.058;3.698;2023-06-14T09:45:46;26.90;44.60
70074;DHT22;57445;51.058;3.698;2023-06-14T09:48:14;27.30;44.50
70074;DHT22;57445;51.058;3.698;2023-06-14T09:50:44;27.40;44.10
70074;DHT22;57445;51.058;3.698;2023-06-14T09:53:12;27.10;43.90
70074;DHT22;57445;51.058;3.698;2023-06-14T09:55:40;26.90;45.20
70074;DHT22;57445;51.058;3.698;2023-06-14T09:58:09;27.20;43.90
70074;DHT22;57445;51.058;3.698;2023-06-14T10:00:38;27.70;42.80
70074;DHT22;57445;51.058;3.698;2023-06-14T10:03:10;28.10;43.00
70074;DHT22;57445;51.058;3.698;2023-06-14T10:05:39;28.20;42.40
70074;DHT22;57445;51.058;3.698;2023-06-14T10:08:08;28.60;41.80
70074;DHT22;57445;51.058;3.698;2023-06-14T10:10:38;28.20;42.20
70074;DHT22;57445;51.058;3.698;2023-06-14T10:13:06;28.30;42.90
70074;DHT22;57445;51.058;3.698;2023-06-14T10:15:35;28.10;43.40
70074;DHT22;57445;51.058;3.698;2023-06-14T10:18:06;28.40;41.00
70074;DHT22;57445;51.058;3.698;2023-06-14T10:20:44;28.20;41.70
70074;DHT22;57445;51.058;3.698;2023-06-14T10:23:16;28.20;43.40
70074;DHT22;57445;51.058;3.698;2023-06-14T10:25:44;28.20;43.50
70074;DHT22;57445;51.058;3.698;2023-06-14T10:28:16;28.10;44.00
70074;DHT22;57445;51.058;3.698;2023-06-14T10:33:27;27.40;45.00
70074;DHT22;57445;51.058;3.698;2023-06-14T10:36:08;27.60;45.30
70074;DHT22;57445;51.058;3.698;2023-06-14T10:38:36;27.90;44.70
70074;DHT22;57445;51.058;3.698;2023-06-14T10:41:04;28.00;43.20
70074;DHT22;57445;51.058;3.698;2023-06-14T10:43:32;28.00;43.00
70074;DHT22;57445;51.058;3.698;2023-06-14T10:46:15;28.20;43.60
70074;DHT22;57445;51.058;3.698;2023-06-14T10:48:44;28.60;43.50
70074;DHT22;57445;51.058;3.698;2023-06-14T10:51:19;28.10;44.60
70074;DHT22;57445;51.058;3.698;2023-06-14T10:53:47;28.00;44.00
70074;DHT22;57445;51.058;3.698;2023-06-14T10:56:27;28.00;43.90
70074;DHT22;57445;51.058;3.698;2023-06-14T10:58:55;28.40;43.30
70074;DHT22;57445;51.058;3.698;2023-06-14T11:01:28;28.80;40.10
70074;DHT22;57445;51.058;3.698;2023-06-14T11:04:03;29.10;40.40
70074;DHT22;57445;51.058;3.698;2023-06-14T11:06:41;29.60;40.30
70074;DHT22;57445;51.058;3.698;2023-06-14T11:09:19;29.50;40.10
70074;DHT22;57445;51.058;3.698;2023-06-14T11:11:49;29.80;39.90
70074;DHT22;57445;51.058;3.698;2023-06-14T11:14:18;29.70;40.40
70074;DHT22;57445;51.058;3.698;2023-06-14T11:16:48;29.80;40.60
70074;DHT22;57445;51.058;3.698;2023-06-14T11:19:16;28.90;41.00
70074;DHT22;57445;51.058;3.698;2023-06-14T11:21:48;28.40;41.60
70074;DHT22;57445;51.058;3.698;2023-06-14T11:24:16;28.20;42.20
70074;DHT22;57445;51.058;3.698;2023-06-14T11:26:44;28.50;42.00
70074;DHT22;57445;51.058;3.698;2023-06-14T11:29:11;28.80;41.00
70074;DHT22;57445;51.058;3.698;2023-06-14T11:31:42;29.00;41.10
70074;DHT22;57445;51.058;3.698;2023-06-14T11:34:10;28.80;41.50
70074;DHT22;57445;51.058;3.698;2023-06-14T11:36:39;28.30;41.80
70074;DHT22;57445;51.058;3.698;2023-06-14T11:39:08;28.30;41.30
70074;DHT22;57445;51.058;3.698;2023-06-14T11:41:41;28.20;41.50
70074;DHT22;57445;51.058;3.698;2023-06-14T11:44:09;28.10;41.70
70074;DHT22;57445;51.058;3.698;2023-06-14T11:46:44;28.20;41.60
70074;DHT22;57445;51.058;3.698;2023-06-14T11:49:12;28.10;41.70
70074;DHT22;57445;51.058;3.698;2023-06-14T11:51:39;28.00;41.40
70074;DHT22;57445;51.058;3.698;2023-06-14T11:54:08;28.10;41.30
70074;DHT22;57445;51.058;3.698;2023-06-14T11:56:36;28.80;40.00
70074;DHT22;57445;51.058;3.698;2023-06-14T11:59:04;29.00;39.80
70074;DHT22;57445;51.058;3.698;2023-06-14T12:01:31;29.10;39.40
70074;DHT22;57445;51.058;3.698;2023-06-14T12:03:59;28.70;40.00
70074;DHT22;57445;51.058;3.698;2023-06-14T12:06:28;28.50;40.20
70074;DHT22;57445;51.058;3.698;2023-06-14T12:08:59;28.30;41.50
70074;DHT22;57445;51.058;3.698;2023-06-14T12:11:31;28.10;42.00
70074;DHT22;57445;51.058;3.698;2023-06-14T12:13:59;28.00;42.20
70074;DHT22;57445;51.058;3.698;2023-06-14T12:16:31;28.10;42.00
70074;DHT22;57445;51.058;3.698;2023-06-14T12:19:07;28.40;41.50
70074;DHT22;57445;51.058;3.698;2023-06-14T12:21:36;28.50;40.80
70074;DHT22;57445;51.058;3.698;2023-06-14T12:24:05;28.30;41.20
70074;DHT22;57445;51.058;3.698;2023-06-14T12:26:37;28.50;41.10
70074;DHT22;57445;51.058;3.698;2023-06-14T12:29:05;28.90;41.20
70074;DHT22;57445;51.058;3.698;2023-06-14T12:31:33;28.90;41.10
70074;DHT22;57445;51.058;3.698;2023-06-14T12:34:00;28.80;40.90
70074;DHT22;57445;51.058;3.698;2023-06-14T12:36:28;28.80;40.60
70074;DHT22;57445;51.058;3.698;2023-06-14T12:38:56;28.70;41.20
70074;DHT22;57445;51.058;3.698;2023-06-14T12:41:23;29.00;41.10
70074;DHT22;57445;51.058;3.698;2023-06-14T12:43:54;29.50;40.10
70074;DHT22;57445;51.058;3.698;2023-06-14T12:46:24;29.80;39.70
70074;DHT22;57445;51.058;3.698;2023-06-14T12:48:51;30.40;38.70
70074;DHT22;57445;51.058;3.698;2023-06-14T12:51:19;30.80;38.70
70074;DHT22;57445;51.058;3.698;2023-06-14T12:53:47;30.00;39.10
70074;DHT22;57445;51.058;3.698;2023-06-14T12:56:15;29.70;39.90
70074;DHT22;57445;51.058;3.698;2023-06-14T12:58:42;29.40;41.00
70074;DHT22;57445;51.058;3.698;2023-06-14T13:01:11;29.70;40.60
70074;DHT22;57445;51.058;3.698;2023-06-14T13:03:39;30.00;40.20
70074;DHT22;57445;51.058;3.698;2023-06-14T13:06:06;30.70;39.70
70074;DHT22;57445;51.058;3.698;2023-06-14T13:08:34;30.70;38.90
70074;DHT22;57445;51.058;3.698;2023-06-14T13:11:01;30.30;39.10
70074;DHT22;57445;51.058;3.698;2023-06-14T13:13:28;29.60;39.50
70074;DHT22;57445;51.058;3.698;2023-06-14T13:15:56;29.10;40.60
70074;DHT22;57445;51.058;3.698;2023-06-14T13:18:25;29.40;40.00
70074;DHT22;57445;51.058;3.698;2023-06-14T13:20:52;30.00;39.30
70074;DHT22;57445;51.058;3.698;2023-06-14T13:23:20;30.50;38.50
70074;DHT22;57445;51.058;3.698;2023-06-14T13:25:47;30.80;38.60
70074;DHT22;57445;51.058;3.698;2023-06-14T13:28:17;30.10;39.20
70074;DHT22;57445;51.058;3.698;2023-06-14T13:30:44;29.90;39.10
70074;DHT22;57445;51.058;3.698;2023-06-14T13:33:12;29.90;39.00
70074;DHT22;57445;51.058;3.698;2023-06-14T13:35:41;29.40;39.50
70074;DHT22;57445;51.058;3.698;2023-06-14T13:38:09;29.30;39.60
70074;DHT22;57445;51.058;3.698;2023-06-14T13:40:36;29.20;40.00
70074;DHT22;57445;51.058;3.698;2023-06-14T13:43:05;29.60;39.80
70074;DHT22;57445;51.058;3.698;2023-06-14T13:45:32;29.20;40.40
70074;DHT22;57445;51.058;3.698;2023-06-14T13:48:01;29.00;40.00
70074;DHT22;57445;51.058;3.698;2023-06-14T13:50:29;29.30;40.50
70074;DHT22;57445;51.058;3.698;2023-06-14T13:52:58;29.30;40.20
70074;DHT22;57445;51.058;3.698;2023-06-14T13:55:26;29.50;39.70
70074;DHT22;57445;51.058;3.698;2023-06-14T13:57:54;30.10;38.80
70074;DHT22;57445;51.058;3.698;2023-06-14T14:00:22;30.10;38.70
70074;DHT22;57445;51.058;3.698;2023-06-14T14:02:50;29.80;39.30
70074;DHT22;57445;51.058;3.698;2023-06-14T14:05:17;29.70;39.10
70074;DHT22;57445;51.058;3.698;2023-06-14T14:07:46;29.70;39.40
70074;DHT22;57445;51.058;3.698;2023-06-14T14:10:15;30.20;39.00
70074;DHT22;57445;51.058;3.698;2023-06-14T14:12:43;30.70;38.70
70074;DHT22;57445;51.058;3.698;2023-06-14T14:15:11;30.40;38.80
70074;DHT22;57445;51.058;3.698;2023-06-14T14:17:40;29.70;38.70
70074;DHT22;57445;51.058;3.698;2023-06-14T14:20:08;29.50;39.70
70074;DHT22;57445;51.058;3.698;2023-06-14T14:22:38;29.50;40.20
70074;DHT22;57445;51.058;3.698;2023-06-14T14:25:07;29.70;40.00
70074;DHT22;57445;51.058;3.698;2023-06-14T14:27:36;29.70;40.10
70074;DHT22;57445;51.058;3.698;2023-06-14T14:30:04;29.90;40.10
70074;DHT22;57445;51.058;3.698;2023-06-14T14:32:32;30.20;39.30
70074;DHT22;57445;51.058;3.698;2023-06-14T14:34:59;30.20;39.40
70074;DHT22;57445;51.058;3.698;2023-06-14T14:37:27;29.60;40.10
70074;DHT22;57445;51.058;3.698;2023-06-14T14:39:54;29.30;40.40
70074;DHT22;57445;51.058;3.698;2023-06-14T14:42:22;28.70;41.20
70074;DHT22;57445;51.058;3.698;2023-06-14T14:44:50;28.80;41.50
70074;DHT22;57445;51.058;3.698;2023-06-14T14:47:18;28.90;41.10
70074;DHT22;57445;51.058;3.698;2023-06-14T14:49:46;28.50;41.30
70074;DHT22;57445;51.058;3.698;2023-06-14T14:52:14;28.80;41.10
70074;DHT22;57445;51.058;3.698;2023-06-14T14:54:42;29.20;40.30
70074;DHT22;57445;51.058;3.698;2023-06-14T14:57:09;29.60;39.80
70074;DHT22;57445;51.058;3.698;2023-06-14T14:59:37;29.60;40.10
70074;DHT22;57445;51.058;3.698;2023-06-14T15:02:06;29.40;39.80
70074;DHT22;57445;51.058;3.698;2023-06-14T15:04:33;29.40;39.60
70074;DHT22;57445;51.058;3.698;2023-06-14T15:07:01;29.90;39.10
70074;DHT22;57445;51.058;3.698;2023-06-14T15:09:28;29.70;39.10
70074;DHT22;57445;51.058;3.698;2023-06-14T15:11:56;29.40;39.40
70074;DHT22;57445;51.058;3.698;2023-06-14T15:14:23;28.80;39.30
70074;DHT22;57445;51.058;3.698;2023-06-14T15:16:51;28.60;39.60
70074;DHT22;57445;51.058;3.698;2023-06-14T15:19:20;28.40;39.50
70074;DHT22;57445;51.058;3.698;2023-06-14T15:21:47;28.60;39.70
70074;DHT22;57445;51.058;3.698;2023-06-14T15:24:15;29.00;38.90
70074;DHT22;57445;51.058;3.698;2023-06-14T15:26:43;29.50;38.50
70074;DHT22;57445;51.058;3.698;2023-06-14T15:29:10;29.20;38.90
70074;DHT22;57445;51.058;3.698;2023-06-14T15:31:38;29.20;39.30
70074;DHT22;57445;51.058;3.698;2023-06-14T15:34:05;29.20;39.20
70074;DHT22;57445;51.058;3.698;2023-06-14T15:36:34;29.00;39.30
70074;DHT22;57445;51.058;3.698;2023-06-14T15:39:02;28.70;39.60
70074;DHT22;57445;51.058;3.698;2023-06-14T15:41:30;28.50;39.90